Time;durP1;ratioP1;P1;durP2;ratioP2;P2;SDS_P1;SDS_P2;PMS_P1;PMS_P2;Temp;Humidity;BMP_temperature;BMP_pressure;BME280_temperature;BME280_humidity;BME280_pressure;Samples;Min_cycle;Max_cycle;Signal;HPM_P1;HPM_P2
2021/04/09 00:00:17;;;;;;;19.10;9.63;;;6.10;99.90;;;;;;5045056;28;20064;-73
2021/04/09 00:02:43;;;;;;;19.77;9.65;;;6.10;99.90;;;;;;5052905;28;20040;-73
2021/04/09 00:05:11;;;;;;;17.65;10.65;;;6.10;99.90;;;;;;5045635;28;20089;-72
2021/04/09 00:07:37;;;;;;;19.85;9.60;;;6.10;99.90;;;;;;5036224;28;20080;-74
2021/04/09 00:10:08;;;;;;;16.88;9.60;;;6.10;99.90;;;;;;5039511;28;20520;-72
2021/04/09 00:12:34;;;;;;;17.83;10.18;;;6.10;99.90;;;;;;5042939;28;20405;-72
2021/04/09 00:15:00;;;;;;;18.38;10.35;;;6.00;99.90;;;;;;5035319;28;20034;-73
2021/04/09 00:17:25;;;;;;;20.05;9.70;;;6.00;99.90;;;;;;5035815;28;20096;-73
2021/04/09 00:19:51;;;;;;;22.27;9.07;;;6.00;99.90;;;;;;5050424;28;20029;-72
2021/04/09 00:22:16;;;;;;;20.02;10.05;;;6.10;99.90;;;;;;5050204;28;20427;-74
2021/04/09 00:24:42;;;;;;;21.33;10.50;;;6.10;99.90;;;;;;5034151;28;20025;-72
2021/04/09 00:27:08;;;;;;;18.08;9.93;;;6.00;99.90;;;;;;5036265;28;20421;-74
2021/04/09 00:29:33;;;;;;;21.15;9.82;;;6.00;99.90;;;;;;5035837;28;20025;-74
2021/04/09 00:31:59;;;;;;;21.42;10.50;;;6.00;99.90;;;;;;5036011;28;20029;-73
2021/04/09 00:34:24;;;;;;;23.13;10.85;;;6.00;99.90;;;;;;5035009;28;20029;-73
2021/04/09 00:36:50;;;;;;;21.00;9.43;;;6.00;99.90;;;;;;5035702;28;20051;-72
2021/04/09 00:39:16;;;;;;;24.55;10.20;;;6.00;99.90;;;;;;5034077;28;20083;-72
2021/04/09 00:41:41;;;;;;;22.92;11.35;;;6.00;99.90;;;;;;5033516;28;20381;-73
2021/04/09 00:44:08;;;;;;;19.85;10.07;;;6.10;99.90;;;;;;5034896;28;20466;-72
2021/04/09 00:46:34;;;;;;;22.65;10.80;;;6.10;99.90;;;;;;5033932;28;20029;-72
2021/04/09 00:49:00;;;;;;;27.52;10.73;;;6.10;99.90;;;;;;5035018;28;20390;-73
2021/04/09 00:51:26;;;;;;;16.90;10.05;;;6.10;99.90;;;;;;5035165;28;20030;-72
2021/04/09 00:53:51;;;;;;;29.80;10.38;;;6.10;99.90;;;;;;5034930;28;20038;-72
2021/04/09 00:56:19;;;;;;;16.98;9.75;;;6.10;99.90;;;;;;5034133;28;20477;-72
2021/04/09 00:58:46;;;;;;;17.98;10.13;;;6.10;99.90;;;;;;5033962;28;20036;-72
2021/04/09 01:01:12;;;;;;;19.95;10.20;;;6.10;99.90;;;;;;5034657;28;20135;-72
2021/04/09 01:03:38;;;;;;;21.95;10.25;;;6.00;99.90;;;;;;5034373;28;20553;-72
2021/04/09 01:06:04;;;;;;;20.38;9.98;;;6.10;99.90;;;;;;5033016;28;20021;-74
2021/04/09 01:08:30;;;;;;;22.60;10.90;;;6.00;99.90;;;;;;5034415;28;20033;-72
2021/04/09 01:10:56;;;;;;;17.73;10.00;;;6.00;99.90;;;;;;5034522;28;20437;-73
2021/04/09 01:13:21;;;;;;;20.50;10.80;;;6.00;99.90;;;;;;5032574;28;20497;-72
2021/04/09 01:15:47;;;;;;;18.70;10.23;;;6.00;99.90;;;;;;5032461;28;20041;-73
2021/04/09 01:18:22;;;;;;;16.42;10.13;;;6.00;99.90;;;;;;5033515;28;20041;-71
2021/04/09 01:21:12;;;;;;;15.80;9.25;;;6.00;99.90;;;;;;5027009;28;20025;-72
2021/04/09 01:23:44;;;;;;;22.83;11.63;;;6.00;99.90;;;;;;5031800;28;20463;-72
2021/04/09 01:26:31;;;;;;;20.67;10.07;;;6.00;99.90;;;;;;5032971;28;20390;-72
2021/04/09 01:29:30;;;;;;;20.05;9.50;;;6.00;99.90;;;;;;5033899;28;20366;-72
2021/04/09 01:32:01;;;;;;;20.35;10.18;;;6.00;99.90;;;;;;5035046;28;20342;-73
2021/04/09 01:34:32;;;;;;;23.88;10.63;;;6.00;99.90;;;;;;5033442;28;20034;-72
2021/04/09 01:37:03;;;;;;;19.67;10.50;;;6.00;99.90;;;;;;5033811;28;20104;-72
2021/04/09 01:39:40;;;;;;;19.10;10.23;;;6.10;99.90;;;;;;5033427;28;20024;-72
2021/04/09 01:42:09;;;;;;;25.92;10.55;;;6.00;99.90;;;;;;5033625;28;20037;-71
2021/04/09 01:44:39;;;;;;;18.95;10.60;;;6.00;99.90;;;;;;5033172;28;20021;-72
2021/04/09 01:47:06;;;;;;;21.33;10.48;;;6.00;99.90;;;;;;5034248;28;20030;-71
2021/04/09 01:49:33;;;;;;;19.95;9.82;;;5.90;99.90;;;;;;5032442;28;20033;-72
2021/04/09 01:52:00;;;;;;;24.00;11.55;;;5.90;99.90;;;;;;5038278;28;20148;-72
2021/04/09 01:54:28;;;;;;;24.40;9.68;;;5.90;99.90;;;;;;5044380;28;20056;-73
2021/04/09 01:56:54;;;;;;;28.08;9.15;;;5.90;99.90;;;;;;5045357;28;20097;-73
2021/04/09 01:59:22;;;;;;;19.42;10.20;;;5.80;99.90;;;;;;5042560;28;20355;-72
2021/04/09 02:01:49;;;;;;;20.30;9.13;;;5.90;99.90;;;;;;5036278;28;20021;-73
2021/04/09 02:04:19;;;;;;;19.23;10.00;;;5.90;99.90;;;;;;5034762;28;20033;-71
2021/04/09 02:06:48;;;;;;;15.65;9.25;;;5.90;99.90;;;;;;5034940;28;20033;-73
2021/04/09 02:09:14;;;;;;;15.55;9.80;;;5.90;99.90;;;;;;5031371;28;20033;-73
2021/04/09 02:11:41;;;;;;;17.73;9.63;;;5.90;99.90;;;;;;5033502;28;20250;-73
2021/04/09 02:14:11;;;;;;;19.00;9.80;;;5.90;99.90;;;;;;5032038;28;20036;-73
2021/04/09 02:16:39;;;;;;;34.55;9.82;;;5.90;99.90;;;;;;5033008;28;20041;-72
2021/04/09 02:19:06;;;;;;;18.50;10.00;;;6.00;99.90;;;;;;5030630;28;20026;-72
2021/04/09 02:21:36;;;;;;;21.83;10.15;;;6.00;99.90;;;;;;5033400;28;20033;-73
2021/04/09 02:24:06;;;;;;;17.23;8.52;;;6.00;99.90;;;;;;5032069;28;20498;-72
2021/04/09 02:26:32;;;;;;;15.25;8.30;;;6.00;99.90;;;;;;5033066;28;20128;-72
2021/04/09 02:29:01;;;;;;;12.18;9.18;;;6.10;99.90;;;;;;5030869;28;20043;-73
2021/04/09 02:31:28;;;;;;;24.08;8.90;;;6.10;99.90;;;;;;5033665;28;20032;-73
2021/04/09 02:33:54;;;;;;;14.93;8.68;;;6.10;99.90;;;;;;5033039;28;20382;-73
2021/04/09 02:36:22;;;;;;;16.83;8.55;;;6.20;99.90;;;;;;5031548;28;20080;-73
2021/04/09 02:39:09;;;;;;;17.92;9.18;;;6.10;99.90;;;;;;5030764;28;20182;-73
2021/04/09 02:41:38;;;;;;;21.42;9.18;;;6.20;99.90;;;;;;5030844;28;20028;-72
2021/04/09 02:44:04;;;;;;;15.65;8.88;;;6.20;99.90;;;;;;5033583;28;20035;-73
2021/04/09 02:47:00;;;;;;;16.20;8.35;;;6.20;99.90;;;;;;5032552;28;20021;-73
2021/04/09 02:49:47;;;;;;;16.35;9.20;;;6.30;99.90;;;;;;5031998;28;20112;-73
2021/04/09 02:52:23;;;;;;;17.30;8.77;;;6.20;99.90;;;;;;5031838;28;20099;-73
2021/04/09 02:54:52;;;;;;;16.13;8.55;;;6.20;99.90;;;;;;5032418;28;20025;-73
2021/04/09 02:57:19;;;;;;;18.55;8.90;;;6.30;99.90;;;;;;5032395;28;20502;-73
2021/04/09 02:59:46;;;;;;;17.63;9.45;;;6.30;99.90;;;;;;5044878;28;20025;-73
2021/04/09 03:02:14;;;;;;;15.18;9.48;;;6.30;99.90;;;;;;5032347;28;20455;-72
2021/04/09 03:04:42;;;;;;;19.02;8.65;;;6.30;99.90;;;;;;5032273;28;20030;-72
2021/04/09 03:07:10;;;;;;;;;;;6.40;99.90;;;;;;5032779;28;20030;-73
2021/04/09 03:09:37;;;;;;;15.68;7.63;;;6.30;99.90;;;;;;5032731;28;19909;-73
2021/04/09 03:12:14;;;;;;;17.60;9.43;;;6.30;99.90;;;;;;5031930;28;20116;-73
2021/04/09 03:14:41;;;;;;;18.13;8.90;;;6.30;99.90;;;;;;5027797;28;20339;-72
2021/04/09 03:17:10;;;;;;;15.35;8.65;;;6.30;99.90;;;;;;5032218;28;20028;-73
2021/04/09 03:19:35;;;;;;;16.00;8.77;;;6.30;99.90;;;;;;5031220;28;20091;-72
2021/04/09 03:22:09;;;;;;;18.98;8.65;;;6.30;99.90;;;;;;5031755;28;20029;-73
2021/04/09 03:24:36;;;;;;;15.52;8.73;;;6.30;99.90;;;;;;5019329;28;20112;-73
2021/04/09 03:27:02;;;;;;;14.05;9.48;;;6.40;99.90;;;;;;5031113;28;20414;-73
2021/04/09 03:29:28;;;;;;;14.43;8.25;;;6.40;99.90;;;;;;5035318;28;20501;-73
2021/04/09 03:31:54;;;;;;;11.50;8.23;;;6.50;99.90;;;;;;5036888;28;20037;-73
2021/04/09 03:34:19;;;;;;;14.82;8.65;;;6.40;99.90;;;;;;5037147;28;20100;-74
2021/04/09 03:36:45;;;;;;;16.95;8.73;;;6.50;99.90;;;;;;5037483;28;20021;-74
2021/04/09 03:39:11;;;;;;;18.10;9.05;;;6.40;99.90;;;;;;5032998;28;20466;-72
2021/04/09 03:41:36;;;;;;;20.38;8.90;;;6.40;99.90;;;;;;5032880;28;20425;-74
2021/04/09 03:44:02;;;;;;;18.50;8.77;;;6.40;99.90;;;;;;5044441;28;20509;-73
2021/04/09 03:46:27;;;;;;;18.95;9.00;;;6.40;99.90;;;;;;5031326;28;20029;-72
2021/04/09 03:48:53;;;;;;;18.35;7.57;;;6.40;99.90;;;;;;5035883;28;20340;-74
2021/04/09 03:51:19;;;;;;;14.32;7.70;;;6.50;99.90;;;;;;5034538;28;20147;-72
2021/04/09 03:53:44;;;;;;;17.40;9.77;;;6.40;99.90;;;;;;5035594;28;20132;-73
2021/04/09 03:56:10;;;;;;;14.25;8.35;;;6.40;99.90;;;;;;5038086;28;20025;-72
2021/04/09 03:58:35;;;;;;;20.25;9.65;;;6.30;99.90;;;;;;5032817;28;20053;-73
2021/04/09 04:01:01;;;;;;;15.90;8.50;;;6.30;99.90;;;;;;5035230;28;20022;-73
2021/04/09 04:03:27;;;;;;;12.95;7.68;;;6.40;99.90;;;;;;5032449;28;20056;-74
2021/04/09 04:05:52;;;;;;;13.27;7.68;;;6.40;99.90;;;;;;5035186;28;20049;-73
2021/04/09 04:08:18;;;;;;;15.38;9.48;;;6.40;99.90;;;;;;5033927;28;20033;-73
2021/04/09 04:10:46;;;;;;;19.13;8.05;;;6.40;99.90;;;;;;5034973;28;20056;-72
2021/04/09 04:13:11;;;;;;;14.85;8.60;;;6.30;99.90;;;;;;5034732;28;20385;-73
2021/04/09 04:15:37;;;;;;;15.27;7.93;;;6.30;99.90;;;;;;5033495;28;20029;-73
2021/04/09 04:18:03;;;;;;;20.95;9.35;;;6.30;99.90;;;;;;5033765;28;20025;-72
2021/04/09 04:20:28;;;;;;;18.80;8.27;;;6.30;99.90;;;;;;5034048;28;20017;-73
2021/04/09 04:22:54;;;;;;;19.95;8.45;;;6.30;99.90;;;;;;5035323;28;20029;-72
2021/04/09 04:25:19;;;;;;;17.30;8.43;;;6.30;99.90;;;;;;5033571;28;20437;-72
2021/04/09 04:27:45;;;;;;;16.85;8.10;;;6.30;99.90;;;;;;5034641;28;20029;-73
2021/04/09 04:30:11;;;;;;;12.95;8.18;;;6.30;99.90;;;;;;5034997;28;20441;-73
2021/04/09 04:32:37;;;;;;;16.55;8.40;;;6.30;99.90;;;;;;5035476;28;20080;-73
2021/04/09 04:35:03;;;;;;;17.98;8.82;;;6.30;99.90;;;;;;5032850;28;20042;-73
2021/04/09 04:37:28;;;;;;;16.33;8.52;;;6.30;99.90;;;;;;5033303;28;20021;-73
2021/04/09 04:39:54;;;;;;;17.30;8.23;;;6.20;99.90;;;;;;5033419;28;20037;-73
2021/04/09 04:42:20;;;;;;;11.18;7.90;;;6.20;99.90;;;;;;5034953;28;20466;-73
2021/04/09 04:44:45;;;;;;;13.60;7.75;;;6.30;99.90;;;;;;5035411;28;20033;-72
2021/04/09 04:47:11;;;;;;;14.25;8.82;;;6.20;99.90;;;;;;5033903;28;20033;-72
2021/04/09 04:49:37;;;;;;;15.55;8.60;;;6.20;99.90;;;;;;5033626;28;20091;-73
2021/04/09 04:52:03;;;;;;;17.88;8.30;;;6.20;99.90;;;;;;5035081;28;20064;-72
2021/04/09 04:54:28;;;;;;;15.07;8.32;;;6.20;99.90;;;;;;5035075;28;20501;-73
2021/04/09 04:56:54;;;;;;;12.38;7.78;;;6.20;99.90;;;;;;5043032;28;20025;-73
2021/04/09 04:59:19;;;;;;;17.70;8.27;;;6.10;99.90;;;;;;5046588;28;20474;-73
2021/04/09 05:01:45;;;;;;;19.13;8.55;;;6.00;99.90;;;;;;5048565;28;20037;-73
2021/04/09 05:04:11;;;;;;;16.95;8.15;;;6.10;99.90;;;;;;5051488;28;20029;-72
2021/04/09 05:06:36;;;;;;;13.85;8.27;;;6.10;99.90;;;;;;5050978;28;20041;-73
2021/04/09 05:09:05;;;;;;;16.65;8.90;;;6.10;99.90;;;;;;5052282;28;20034;-73
2021/04/09 05:11:31;;;;;;;18.60;9.07;;;6.10;99.90;;;;;;5044445;28;20466;-73
2021/04/09 05:13:57;;;;;;;19.55;9.02;;;6.10;99.90;;;;;;5036647;28;20116;-73
2021/04/09 05:16:22;;;;;;;15.05;7.60;;;6.10;99.90;;;;;;5033050;28;20064;-73
2021/04/09 05:18:48;;;;;;;18.85;9.13;;;6.10;99.90;;;;;;5034535;28;20018;-73
2021/04/09 05:21:15;;;;;;;13.55;7.80;;;6.10;99.90;;;;;;5035432;28;20029;-72
2021/04/09 05:23:40;;;;;;;17.10;8.27;;;6.10;99.90;;;;;;5035404;28;20068;-71
2021/04/09 05:26:06;;;;;;;24.08;8.35;;;6.20;99.90;;;;;;5034465;28;20414;-72
2021/04/09 05:28:32;;;;;;;17.00;8.55;;;6.20;99.90;;;;;;5034488;28;20044;-71
2021/04/09 05:30:57;;;;;;;19.40;8.20;;;6.20;99.90;;;;;;5032355;28;20022;-72
2021/04/09 05:33:24;;;;;;;18.23;7.68;;;6.20;99.90;;;;;;5034026;28;20028;-72
2021/04/09 05:35:50;;;;;;;18.70;8.43;;;6.20;99.90;;;;;;5032271;28;20053;-72
2021/04/09 05:38:16;;;;;;;14.93;8.13;;;6.20;99.90;;;;;;5032717;28;20545;-74
2021/04/09 05:40:41;;;;;;;18.63;8.35;;;6.30;99.90;;;;;;5028375;28;20101;-72
2021/04/09 05:43:07;;;;;;;22.48;8.20;;;6.30;99.90;;;;;;5045371;28;20025;-72
2021/04/09 05:45:33;;;;;;;13.52;7.15;;;6.40;99.90;;;;;;5031660;28;20061;-73
2021/04/09 05:48:05;;;;;;;20.95;8.45;;;6.40;99.90;;;;;;5030418;28;20022;-72
2021/04/09 05:50:31;;;;;;;16.70;8.07;;;6.50;99.90;;;;;;5028783;28;20038;-72
2021/04/09 05:52:57;;;;;;;15.95;7.88;;;6.50;99.90;;;;;;5027402;28;20034;-74
2021/04/09 05:55:22;;;;;;;13.60;7.95;;;6.50;99.90;;;;;;5030731;28;20105;-72
2021/04/09 05:57:48;;;;;;;15.07;8.50;;;6.50;99.90;;;;;;5031418;28;20075;-72
2021/04/09 06:00:14;;;;;;;15.50;8.60;;;6.50;99.90;;;;;;5031570;28;20470;-72
2021/04/09 06:02:40;;;;;;;16.40;7.80;;;6.50;99.90;;;;;;5032046;28;20025;-73
2021/04/09 06:05:06;;;;;;;16.10;8.23;;;6.50;99.90;;;;;;5032514;28;20075;-72
2021/04/09 06:07:32;;;;;;;13.93;8.35;;;6.50;99.90;;;;;;5032881;28;20077;-72
2021/04/09 06:09:57;;;;;;;18.70;7.88;;;6.60;99.90;;;;;;5032395;28;20080;-72
2021/04/09 06:12:23;;;;;;;13.50;7.70;;;6.70;99.90;;;;;;5033651;28;20397;-72
2021/04/09 06:14:51;;;;;;;21.02;8.25;;;6.70;99.90;;;;;;5031733;28;20041;-73
2021/04/09 06:17:17;;;;;;;;;;;6.80;99.90;;;;;;5019455;28;20033;-72
2021/04/09 06:19:42;;;;;;;20.05;8.65;;;6.90;99.90;;;;;;5029796;28;19909;-72
2021/04/09 06:22:08;;;;;;;15.15;9.35;;;7.00;99.90;;;;;;5031595;28;20750;-72
2021/04/09 06:24:36;;;;;;;17.48;7.50;;;7.00;99.90;;;;;;5031891;28;20042;-74
2021/04/09 06:27:02;;;;;;;14.70;7.70;;;7.00;99.90;;;;;;5050585;28;20041;-73
2021/04/09 06:29:28;;;;;;;17.65;7.78;;;7.00;99.90;;;;;;5045673;28;20025;-74
2021/04/09 06:31:54;;;;;;;19.67;8.25;;;7.00;99.90;;;;;;5045527;28;20055;-73
2021/04/09 06:34:19;;;;;;;17.77;7.57;;;7.10;99.90;;;;;;5047973;28;20093;-73
2021/04/09 06:36:45;;;;;;;13.43;7.68;;;7.20;99.90;;;;;;5051387;28;20029;-72
2021/04/09 06:39:10;;;;;;;14.43;7.88;;;7.30;99.90;;;;;;5052140;28;20041;-73
2021/04/09 06:41:36;;;;;;;12.95;7.63;;;7.40;99.90;;;;;;5049934;28;20026;-74
2021/04/09 06:44:03;;;;;;;18.13;7.53;;;7.40;99.90;;;;;;5038190;28;20490;-73
2021/04/09 06:46:28;;;;;;;13.80;7.78;;;7.50;99.90;;;;;;5036253;28;20030;-72
2021/04/09 06:48:57;;;;;;;14.20;6.97;;;7.60;99.90;;;;;;5033057;28;20382;-73
2021/04/09 06:51:23;;;;;;;15.50;7.60;;;7.70;99.90;;;;;;5032088;28;20064;-73
2021/04/09 06:53:50;;;;;;;11.20;7.28;;;7.80;99.90;;;;;;5036165;28;20055;-73
2021/04/09 06:56:16;;;;;;;15.48;7.07;;;7.90;99.90;;;;;;5031519;28;20018;-75
2021/04/09 06:58:46;;;;;;;12.48;7.35;;;8.00;99.90;;;;;;5032533;28;20029;-73
2021/04/09 07:01:14;;;;;;;16.58;6.80;;;7.90;99.90;;;;;;5031469;28;20108;-76
2021/04/09 07:03:40;;;;;;;18.20;7.57;;;8.00;99.90;;;;;;5028443;28;20033;-74
2021/04/09 07:06:05;;;;;;;18.45;7.90;;;8.00;99.90;;;;;;5032173;28;20025;-73
2021/04/09 07:08:43;;;;;;;14.20;6.85;;;8.10;99.90;;;;;;5032561;28;20022;-74
2021/04/09 07:11:09;;;;;;;13.88;6.72;;;8.20;99.90;;;;;;5030916;28;20506;-73
2021/04/09 07:13:51;;;;;;;12.30;8.00;;;8.30;99.90;;;;;;5031623;28;20525;-74
2021/04/09 07:16:17;;;;;;;13.73;6.40;;;8.40;99.90;;;;;;5031015;28;20045;-74
2021/04/09 07:18:54;;;;;;;14.73;6.90;;;8.50;99.90;;;;;;5030617;28;20453;-73
2021/04/09 07:21:26;;;;;;;14.63;7.20;;;8.50;99.90;;;;;;5032184;28;20029;-73
2021/04/09 07:24:13;;;;;;;17.42;7.50;;;8.60;99.90;;;;;;5028917;28;20375;-73
2021/04/09 07:26:44;;;;;;;13.68;7.15;;;8.60;99.90;;;;;;5028355;28;20029;-73
2021/04/09 07:29:32;;;;;;;12.13;7.43;;;8.60;99.90;;;;;;5032578;28;20032;-74
2021/04/09 07:32:09;;;;;;;10.45;6.03;;;8.60;99.90;;;;;;5030914;28;20207;-73
2021/04/09 07:34:52;;;;;;;19.35;6.75;;;8.80;99.90;;;;;;5030150;28;20175;-73
2021/04/09 07:37:19;;;;;;;13.73;6.38;;;8.90;99.90;;;;;;5030722;28;20033;-74
2021/04/09 07:39:45;;;;;;;12.98;7.28;;;9.00;99.90;;;;;;5031601;28;20032;-74
2021/04/09 07:42:13;;;;;;;14.75;7.13;;;9.00;99.90;;;;;;5046719;28;20052;-74
2021/04/09 07:44:39;;;;;;;13.45;7.40;;;9.20;99.90;;;;;;5031169;28;20057;-73
2021/04/09 07:47:10;;;;;;;12.18;5.80;;;9.30;99.90;;;;;;5027799;28;20029;-75
2021/04/09 07:49:36;;;;;;;11.90;6.22;;;9.30;99.90;;;;;;5029106;28;20084;-74
2021/04/09 07:52:12;;;;;;;12.43;5.90;;;9.40;99.90;;;;;;5043482;28;20061;-75
2021/04/09 07:54:39;;;;;;;12.85;6.22;;;9.50;99.90;;;;;;5031245;28;20033;-72
2021/04/09 07:57:05;;;;;;;9.85;5.75;;;9.50;99.90;;;;;;5030942;28;20037;-73
2021/04/09 07:59:43;;;;;;;15.38;6.38;;;9.50;99.90;;;;;;5033413;28;20029;-72
2021/04/09 08:02:11;;;;;;;15.15;6.22;;;9.60;99.90;;;;;;5032687;28;20079;-72
2021/04/09 08:04:42;;;;;;;10.32;5.97;;;9.80;99.90;;;;;;5041879;28;20076;-72
2021/04/09 08:07:28;;;;;;;15.60;6.57;;;10.00;99.90;;;;;;5046660;28;20033;-73
2021/04/09 08:09:54;;;;;;;15.20;5.90;;;10.10;99.90;;;;;;5049251;28;20029;-73
2021/04/09 08:12:33;;;;;;;16.23;6.95;;;10.20;99.90;;;;;;5041005;28;20084;-74
2021/04/09 08:15:13;;;;;;;9.57;6.10;;;10.30;99.90;;;;;;5038738;28;20069;-72
2021/04/09 08:17:39;;;;;;;12.25;6.03;;;10.30;99.90;;;;;;5049227;28;20079;-72
2021/04/09 08:20:14;;;;;;;9.73;5.85;;;10.40;99.90;;;;;;5035736;28;20021;-73
2021/04/09 08:22:41;;;;;;;12.93;6.72;;;10.30;99.90;;;;;;5034971;28;20029;-74
2021/04/09 08:25:08;;;;;;;22.10;5.72;;;10.20;99.90;;;;;;5048407;28;20159;-73
2021/04/09 08:27:37;;;;;;;14.95;5.80;;;10.30;99.90;;;;;;5032533;28;20112;-73
2021/04/09 08:30:04;;;;;;;9.68;5.95;;;10.40;99.90;;;;;;5033156;28;20037;-73
2021/04/09 08:32:31;;;;;;;16.83;6.55;;;10.20;99.90;;;;;;5035965;28;20511;-74
2021/04/09 08:34:58;;;;;;;10.07;6.15;;;10.10;99.90;;;;;;5032864;28;20033;-79
2021/04/09 08:37:24;;;;;;;14.00;5.88;;;9.90;99.90;;;;;;5033490;28;20041;-76
2021/04/09 08:39:51;;;;;;;8.52;5.85;;;9.90;99.90;;;;;;5050923;28;20039;-72
2021/04/09 08:42:17;;;;;;;17.05;5.70;;;9.90;99.90;;;;;;5042348;28;20021;-73
2021/04/09 08:44:44;;;;;;;13.43;6.13;;;10.10;99.90;;;;;;5035590;28;20079;-74
2021/04/09 08:47:15;;;;;;;15.43;7.20;;;10.30;99.90;;;;;;5031376;28;20040;-72
2021/04/09 08:49:40;;;;;;;11.10;5.78;;;10.30;99.90;;;;;;5034248;28;20021;-73
2021/04/09 08:52:07;;;;;;;13.15;5.72;;;10.40;99.90;;;;;;5033524;28;20537;-74
2021/04/09 08:54:33;;;;;;;18.23;7.13;;;10.60;99.90;;;;;;5031794;28;20386;-73
2021/04/09 08:57:01;;;;;;;12.13;6.82;;;10.70;99.90;;;;;;5031073;28;20076;-72
2021/04/09 08:59:47;;;;;;;10.50;5.68;;;10.80;99.90;;;;;;5030680;28;20494;-70
2021/04/09 09:02:16;;;;;;;13.55;5.45;;;10.80;99.90;;;;;;5032976;28;20112;-71
2021/04/09 09:05:01;;;;;;;10.63;5.57;;;10.90;99.90;;;;;;5030815;28;20428;-71
2021/04/09 09:07:46;;;;;;;7.40;5.13;;;10.90;99.90;;;;;;5044683;28;20037;-72
2021/04/09 09:10:29;;;;;;;11.07;4.93;;;10.80;99.90;;;;;;5032288;28;20029;-72
2021/04/09 09:13:04;;;;;;;10.90;5.63;;;10.70;99.90;;;;;;5046391;28;20032;-72
2021/04/09 09:15:42;;;;;;;11.35;5.57;;;10.80;99.90;;;;;;5011761;28;630966;-71
2021/04/09 09:18:20;;;;;;;;;;;10.80;99.90;;;;;;5034601;28;20022;-71
2021/04/09 09:21:04;;;;;;;;;;;10.90;99.90;;;;;;5046008;28;19996;-72
2021/04/09 09:23:58;;;;;;;18.42;5.85;;;11.20;99.90;;;;;;5050085;28;19908;-70
2021/04/09 09:26:44;;;;;;;15.23;5.57;;;11.50;99.90;;;;;;5031213;28;20041;-73
2021/04/09 09:29:23;;;;;;;13.05;5.65;;;11.80;99.90;;;;;;5033791;28;20383;-73
2021/04/09 09:31:48;;;;;;;10.27;5.65;;;11.90;99.90;;;;;;5030960;28;20025;-73
2021/04/09 09:34:17;;;;;;;20.05;7.25;;;12.30;99.90;;;;;;5039373;28;20486;-74
2021/04/09 09:37:07;;;;;;;8.50;5.43;;;12.20;99.90;;;;;;5033207;28;20033;-74
2021/04/09 09:39:55;;;;;;;11.30;5.43;;;12.30;99.90;;;;;;5008092;28;20049;-74
2021/04/09 09:42:20;;;;;;;;;;;12.10;99.90;;;;;;5037781;28;20030;-74
2021/04/09 09:44:54;;;;;;;12.35;5.88;;;12.20;99.90;;;;;;5049916;28;19909;-74
2021/04/09 09:47:21;;;;;;;9.80;5.47;;;12.20;99.90;;;;;;5033774;28;20033;-74
2021/04/09 09:52:44;;;;;;;10.00;5.25;;;12.30;99.90;;;;;;5043323;28;20052;-74
2021/04/09 09:55:30;;;;;;;13.23;6.78;;;12.30;99.90;;;;;;5053607;28;20037;-75
2021/04/09 09:58:19;;;;;;;9.23;5.78;;;12.50;99.90;;;;;;5061259;28;20025;-72
2021/04/09 10:00:52;;;;;;;8.60;5.88;;;12.60;99.90;;;;;;5051606;28;20448;-72
2021/04/09 10:03:32;;;;;;;13.98;6.50;;;13.00;99.90;;;;;;5039465;28;20032;-73
2021/04/09 10:05:57;;;;;;;16.85;6.53;;;13.40;99.90;;;;;;5036236;28;20045;-73
2021/04/09 10:08:25;;;;;;;22.13;8.07;;;13.60;99.90;;;;;;5040302;28;20022;-73
2021/04/09 10:11:14;;;;;;;15.30;5.90;;;13.80;99.90;;;;;;5036508;28;20097;-74
2021/04/09 10:13:42;;;;;;;13.60;5.80;;;13.60;99.90;;;;;;5030166;28;20038;-71
2021/04/09 10:16:19;;;;;;;10.23;4.70;;;13.50;99.90;;;;;;5034359;28;20076;-72
2021/04/09 10:18:49;;;;;;;8.45;6.60;;;13.50;99.90;;;;;;5031785;28;20041;-72
2021/04/09 10:21:22;;;;;;;8.68;5.85;;;13.60;99.90;;;;;;5037325;28;20021;-72
2021/04/09 10:24:03;;;;;;;15.75;6.15;;;13.50;99.90;;;;;;5032190;28;20060;-72
2021/04/09 10:26:29;;;;;;;11.90;6.32;;;13.20;99.90;;;;;;5032879;28;20442;-72
2021/04/09 10:28:55;;;;;;;10.32;5.70;;;13.10;99.90;;;;;;5033144;28;20099;-72
2021/04/09 10:31:22;;;;;;;12.13;5.25;;;13.10;99.90;;;;;;5033884;28;20029;-72
2021/04/09 10:33:55;;;;;;;10.27;5.55;;;13.30;99.90;;;;;;5033235;28;20061;-72
2021/04/09 10:36:20;;;;;;;7.00;4.10;;;13.50;99.90;;;;;;5041804;28;20060;-72
2021/04/09 10:38:48;;;;;;;15.63;5.35;;;13.80;99.90;;;;;;5033373;28;20049;-72
2021/04/09 10:41:35;;;;;;;9.98;4.65;;;13.80;99.90;;;;;;5029348;28;20021;-72
2021/04/09 10:44:03;;;;;;;10.68;4.75;;;14.10;99.90;;;;;;5033804;28;20487;-71
2021/04/09 10:46:31;;;;;;;14.35;6.13;;;14.40;99.90;;;;;;5030399;28;20540;-73
2021/04/09 10:49:17;;;;;;;9.45;3.15;;;14.50;99.90;;;;;;5013764;28;20030;-72
2021/04/09 10:51:47;;;;;;;3.58;2.90;;;14.00;99.90;;;;;;5021516;28;20056;-72
2021/04/09 10:54:16;;;;;;;8.40;4.10;;;13.60;99.90;;;;;;5030369;28;20159;-71
2021/04/09 10:57:03;;;;;;;7.32;2.92;;;13.50;99.90;;;;;;5031394;28;20060;-72
2021/04/09 10:59:34;;;;;;;5.10;2.08;;;13.40;99.90;;;;;;5029709;28;20040;-71
2021/04/09 11:02:01;;;;;;;8.27;1.88;;;13.00;99.90;;;;;;5027991;28;20033;-71
2021/04/09 11:04:29;;;;;;;5.93;2.10;;;12.70;99.90;;;;;;5047231;28;20059;-73
2021/04/09 11:06:59;;;;;;;6.22;2.13;;;12.50;99.90;;;;;;5040412;28;20060;-71
2021/04/09 11:09:42;;;;;;;5.65;2.72;;;12.40;99.90;;;;;;5033848;28;20105;-72
2021/04/09 11:12:26;;;;;;;4.82;2.28;;;11.90;99.90;;;;;;5029865;28;20120;-71
2021/04/09 11:15:07;;;;;;;5.15;2.03;;;11.80;99.90;;;;;;5030317;28;20033;-71
2021/04/09 11:17:33;;;;;;;6.63;2.63;;;11.80;99.90;;;;;;5030877;28;20489;-72
2021/04/09 11:20:01;;;;;;;12.93;2.13;;;12.10;99.90;;;;;;5030234;28;20373;-71
2021/04/09 11:22:29;;;;;;;11.00;1.90;;;11.90;99.90;;;;;;5031863;28;20033;-72
2021/04/09 11:25:00;;;;;;;7.90;2.22;;;11.80;99.90;;;;;;5031022;28;20043;-72
2021/04/09 11:27:30;;;;;;;7.78;2.63;;;11.80;99.90;;;;;;5032204;28;20079;-71
2021/04/09 11:30:18;;;;;;;8.00;1.75;;;11.90;99.90;;;;;;5034583;28;20096;-71
2021/04/09 11:32:47;;;;;;;;;;;12.10;99.90;;;;;;5029051;28;20113;-71
2021/04/09 11:35:13;;;;;;;9.50;1.88;;;12.30;99.90;;;;;;5032246;28;19917;-73
2021/04/09 11:37:54;;;;;;;6.22;2.15;;;12.30;99.90;;;;;;5032242;28;20045;-71
2021/04/09 11:40:41;;;;;;;10.20;1.60;;;12.60;99.90;;;;;;5033380;28;20091;-72
2021/04/09 11:43:08;;;;;;;7.20;1.90;;;12.80;99.90;;;;;;5043359;28;20036;-71
2021/04/09 11:45:49;;;;;;;8.05;1.45;;;12.60;99.90;;;;;;5044513;28;20155;-72
2021/04/09 11:48:35;;;;;;;3.97;1.80;;;12.60;99.90;;;;;;5032211;28;20492;-71
2021/04/09 11:51:17;;;;;;;5.75;2.05;;;12.50;99.90;;;;;;5046588;28;20075;-72
2021/04/09 11:53:55;;;;;;;6.35;2.38;;;12.50;99.90;;;;;;5046019;28;20021;-71
2021/04/09 11:56:46;;;;;;;4.90;1.80;;;12.70;99.90;;;;;;5059887;28;20478;-72
2021/04/09 11:59:13;;;;;;;2.60;1.67;;;12.90;99.90;;;;;;5063233;28;20424;-73
2021/04/09 12:01:41;;;;;;;4.97;1.77;;;12.90;99.90;;;;;;5057058;28;20025;-72
2021/04/09 12:04:06;;;;;;;8.23;1.60;;;13.00;99.90;;;;;;5058876;28;20017;-73
2021/04/09 12:06:37;;;;;;;7.63;2.20;;;13.40;99.90;;;;;;5043679;28;20041;-73
2021/04/09 12:09:04;;;;;;;12.25;2.20;;;13.50;99.90;;;;;;5041841;28;20045;-73
2021/04/09 12:11:30;;;;;;;4.13;2.13;;;13.40;99.90;;;;;;5044588;28;20088;-73
2021/04/09 12:13:56;;;;;;;6.68;1.83;;;13.40;99.90;;;;;;5043974;28;20033;-74
2021/04/09 12:16:22;;;;;;;2.50;1.67;;;13.10;99.90;;;;;;5039940;28;20056;-71
2021/04/09 12:18:47;;;;;;;11.93;2.08;;;13.30;99.90;;;;;;5038172;28;20025;-73
2021/04/09 12:21:13;;;;;;;6.78;2.10;;;13.70;99.90;;;;;;5046965;28;20064;-72
2021/04/09 12:23:39;;;;;;;3.72;1.60;;;14.00;99.90;;;;;;5057448;28;20424;-71
2021/04/09 12:26:04;;;;;;;6.35;1.90;;;13.90;99.90;;;;;;5056715;28;20389;-72
2021/04/09 12:28:30;;;;;;;4.65;1.98;;;13.60;99.90;;;;;;5055459;28;20060;-72
2021/04/09 12:30:55;;;;;;;3.60;1.83;;;13.50;99.90;;;;;;5048858;28;20037;-72
2021/04/09 12:33:22;;;;;;;6.22;1.63;;;13.40;99.90;;;;;;5035699;28;20036;-72
2021/04/09 12:35:48;;;;;;;5.28;1.95;;;13.50;99.90;;;;;;5040344;28;20030;-72
2021/04/09 12:38:13;;;;;;;9.25;1.75;;;13.30;99.90;;;;;;5044927;28;20100;-72
2021/04/09 12:40:39;;;;;;;4.25;2.15;;;13.60;99.90;;;;;;5046402;28;20026;-72
2021/04/09 12:43:05;;;;;;;5.75;1.40;;;13.60;99.90;;;;;;5035944;28;20133;-73
2021/04/09 12:45:30;;;;;;;5.28;3.30;;;13.50;99.90;;;;;;5038736;28;20148;-72
2021/04/09 12:47:56;;;;;;;5.72;1.80;;;13.50;99.90;;;;;;5044942;28;20027;-73
2021/04/09 12:50:22;;;;;;;4.38;1.55;;;13.60;99.90;;;;;;5053394;28;20029;-73
2021/04/09 12:52:48;;;;;;;6.55;1.95;;;13.70;99.90;;;;;;5053645;28;20473;-72
2021/04/09 12:55:14;;;;;;;5.07;1.73;;;13.70;99.90;;;;;;5045096;28;20021;-72
2021/04/09 12:57:39;;;;;;;2.58;1.80;;;13.80;99.90;;;;;;5049611;28;20037;-72
2021/04/09 13:00:07;;;;;;;5.53;1.42;;;13.50;99.90;;;;;;5034391;28;20036;-73